Pagrindinis puslapis
METAR-TAF:

METAR-TAF

Oro uostai :

Vasa, Suomija

platuma: 63-03N, ilguma: 021-46E, Aukštis: 4 m

Dabartinis oras

Ataskaita buvo paskelbta 32 minutes, ne 10:20 UTC
Vėjas 11 kt iš Pietų/Pietvakarių
Temperatūra 9°C
Drėgmė 81%
Slėgis 1001 hPa
Matomumas 10 km arba daugiau
Su prošvaistėmis ne aukštis 1400 ft
Apsiniaukę ne aukštis 4500 ft

METAR: EFVA 291020Z AUTO 20011KT 9999 BKN014 OVC045 09/06 Q1001

Laikas: 12:52 (10:52 UTC)

Prognozė

Ataskaita buvo paskelbta 2 valandos ir 27 minutes, ne 08:25 UTC
Prognozė galioja nuo 29 metu 09 UTC su 30 metu 09 UTC
Vėjas 11 kt iš Pietų/Pietvakarių
Matomumas 10 km arba daugiau
Su prošvaistėmis ne aukštis 1200 ft
Tapsmas
nuo 29 metu 09 UTC su 29 metu 11 UTC
Išsisklaidę debesys ne aukštis 3000 ft
Laikinai
nuo 29 metu 14 UTC su 29 metu 20 UTC
Su prošvaistėmis ne aukštis 1200 ft
Tikimybė 30%
nuo 29 metu 23 UTC su 30 metu 08 UTC
Matomumas: 2000 m
ne aukštis 100 ft
Rūkas lopais

TAF: EFVA 290825Z 2909/3009 20011KT 9999 BKN012 BECMG 2909/2911 SCT030 TEMPO 2914/2920 BKN012 PROB30 2923/3008 2000 BCFG VV001

Orai ataskaitas ir orų prognozės (METAR, TAF).

turimą stotys yra geltonos ir raudonos taškus žemėlapyje.

Perkelti pele per norėdami pamatyti stoties vardą.

Tada spustelėkite, norėdami matyti oro stebėjimo ir prognozės.

Norėdami pakeisti žemėlapį: spustelėkite ant žalios mygtukų su juodo kryžiaus žemyn,; žalią mygtuką su brūkšneliu, jei norite nutolinti; arba žalių rodyklių gretimoms žemėlapius.


METAR-TAF: